sensor_id;sensor_type;location;lat;lon;timestamp;temperature;humidity
55771;DHT22;41687;-33.234;-60.334;2023-07-09T00:02:15;12.10;99.90
55771;DHT22;41687;-33.234;-60.334;2023-07-09T00:04:43;12.10;99.90
55771;DHT22;41687;-33.234;-60.334;2023-07-09T00:07:15;12.10;99.90
55771;DHT22;41687;-33.234;-60.334;2023-07-09T00:09:45;12.10;99.90
55771;DHT22;41687;-33.234;-60.334;2023-07-09T00:12:16;12.10;99.90
55771;DHT22;41687;-33.234;-60.334;2023-07-09T00:14:45;12.10;99.90
55771;DHT22;41687;-33.234;-60.334;2023-07-09T00:19:48;12.10;99.90
55771;DHT22;41687;-33.234;-60.334;2023-07-09T00:22:17;12.10;99.90
55771;DHT22;41687;-33.234;-60.334;2023-07-09T00:24:47;12.10;99.90
55771;DHT22;41687;-33.234;-60.334;2023-07-09T00:27:19;12.10;99.90
55771;DHT22;41687;-33.234;-60.334;2023-07-09T00:29:47;12.20;99.90
55771;DHT22;41687;-33.234;-60.334;2023-07-09T00:32:17;12.20;99.90
55771;DHT22;41687;-33.234;-60.334;2023-07-09T00:34:47;12.20;99.90
55771;DHT22;41687;-33.234;-60.334;2023-07-09T00:37:18;12.30;99.90
55771;DHT22;41687;-33.234;-60.334;2023-07-09T00:39:47;12.20;99.90
55771;DHT22;41687;-33.234;-60.334;2023-07-09T00:42:17;12.20;99.90
55771;DHT22;41687;-33.234;-60.334;2023-07-09T00:44:47;12.20;99.90
55771;DHT22;41687;-33.234;-60.334;2023-07-09T00:47:25;12.30;99.90
55771;DHT22;41687;-33.234;-60.334;2023-07-09T00:50:04;12.30;99.90
55771;DHT22;41687;-33.234;-60.334;2023-07-09T00:52:45;12.30;99.90
55771;DHT22;41687;-33.234;-60.334;2023-07-09T00:55:22;12.30;99.90
55771;DHT22;41687;-33.234;-60.334;2023-07-09T00:57:53;12.30;99.90
55771;DHT22;41687;-33.234;-60.334;2023-07-09T01:00:32;12.20;99.90
55771;DHT22;41687;-33.234;-60.334;2023-07-09T01:03:36;12.30;99.90
55771;DHT22;41687;-33.234;-60.334;2023-07-09T01:06:10;12.30;99.90
55771;DHT22;41687;-33.234;-60.334;2023-07-09T01:08:40;12.30;99.90
55771;DHT22;41687;-33.234;-60.334;2023-07-09T01:11:20;12.30;99.90
55771;DHT22;41687;-33.234;-60.334;2023-07-09T01:13:59;12.30;99.90
55771;DHT22;41687;-33.234;-60.334;2023-07-09T01:16:37;12.30;99.90
55771;DHT22;41687;-33.234;-60.334;2023-07-09T01:19:06;12.30;99.90
55771;DHT22;41687;-33.234;-60.334;2023-07-09T01:21:34;12.30;99.90
55771;DHT22;41687;-33.234;-60.334;2023-07-09T01:24:45;12.30;99.90
55771;DHT22;41687;-33.234;-60.334;2023-07-09T01:27:03;12.30;99.90
55771;DHT22;41687;-33.234;-60.334;2023-07-09T01:29:34;12.40;99.90
55771;DHT22;41687;-33.234;-60.334;2023-07-09T01:32:04;12.30;99.90
55771;DHT22;41687;-33.234;-60.334;2023-07-09T01:34:33;12.30;99.90
55771;DHT22;41687;-33.234;-60.334;2023-07-09T01:37:01;12.30;99.90
55771;DHT22;41687;-33.234;-60.334;2023-07-09T01:39:29;12.30;99.90
55771;DHT22;41687;-33.234;-60.334;2023-07-09T01:41:59;12.30;99.90
55771;DHT22;41687;-33.234;-60.334;2023-07-09T01:44:26;12.40;99.90
55771;DHT22;41687;-33.234;-60.334;2023-07-09T01:46:55;12.40;99.90
55771;DHT22;41687;-33.234;-60.334;2023-07-09T01:49:24;12.40;99.90
55771;DHT22;41687;-33.234;-60.334;2023-07-09T01:51:56;12.40;99.90
55771;DHT22;41687;-33.234;-60.334;2023-07-09T01:54:30;12.40;99.90
55771;DHT22;41687;-33.234;-60.334;2023-07-09T01:57:19;12.40;99.90
55771;DHT22;41687;-33.234;-60.334;2023-07-09T01:59:53;12.40;99.90
55771;DHT22;41687;-33.234;-60.334;2023-07-09T02:02:22;12.40;99.90
55771;DHT22;41687;-33.234;-60.334;2023-07-09T02:04:52;12.40;99.90
55771;DHT22;41687;-33.234;-60.334;2023-07-09T02:07:22;12.40;99.90
55771;DHT22;41687;-33.234;-60.334;2023-07-09T02:09:50;12.40;99.90
55771;DHT22;41687;-33.234;-60.334;2023-07-09T02:12:19;12.40;99.90
55771;DHT22;41687;-33.234;-60.334;2023-07-09T02:14:47;12.40;99.90
55771;DHT22;41687;-33.234;-60.334;2023-07-09T02:17:15;12.50;99.90
55771;DHT22;41687;-33.234;-60.334;2023-07-09T02:19:43;12.40;99.90
55771;DHT22;41687;-33.234;-60.334;2023-07-09T02:22:11;12.40;99.90
55771;DHT22;41687;-33.234;-60.334;2023-07-09T02:24:39;12.40;99.90
55771;DHT22;41687;-33.234;-60.334;2023-07-09T02:27:08;12.40;99.90
55771;DHT22;41687;-33.234;-60.334;2023-07-09T02:29:37;12.40;99.90
55771;DHT22;41687;-33.234;-60.334;2023-07-09T02:32:05;12.40;99.90
55771;DHT22;41687;-33.234;-60.334;2023-07-09T02:34:33;12.40;99.90
55771;DHT22;41687;-33.234;-60.334;2023-07-09T02:37:02;12.50;99.90
55771;DHT22;41687;-33.234;-60.334;2023-07-09T02:39:30;12.50;99.90
55771;DHT22;41687;-33.234;-60.334;2023-07-09T02:41:57;12.50;99.90
55771;DHT22;41687;-33.234;-60.334;2023-07-09T02:44:25;12.50;99.90
55771;DHT22;41687;-33.234;-60.334;2023-07-09T02:46:53;12.50;99.90
55771;DHT22;41687;-33.234;-60.334;2023-07-09T02:49:22;12.60;99.90
55771;DHT22;41687;-33.234;-60.334;2023-07-09T02:51:50;12.50;99.90
55771;DHT22;41687;-33.234;-60.334;2023-07-09T02:54:18;12.50;99.90
55771;DHT22;41687;-33.234;-60.334;2023-07-09T02:56:46;12.50;99.90
55771;DHT22;41687;-33.234;-60.334;2023-07-09T02:59:13;12.50;99.90
55771;DHT22;41687;-33.234;-60.334;2023-07-09T03:01:40;12.50;99.90
55771;DHT22;41687;-33.234;-60.334;2023-07-09T03:04:07;12.50;99.90
55771;DHT22;41687;-33.234;-60.334;2023-07-09T03:06:36;12.50;99.90
55771;DHT22;41687;-33.234;-60.334;2023-07-09T03:09:04;12.50;99.90
55771;DHT22;41687;-33.234;-60.334;2023-07-09T03:11:33;12.50;99.90
55771;DHT22;41687;-33.234;-60.334;2023-07-09T03:14:02;12.50;99.90
55771;DHT22;41687;-33.234;-60.334;2023-07-09T03:16:32;12.50;99.90
55771;DHT22;41687;-33.234;-60.334;2023-07-09T03:19:00;12.50;99.90
55771;DHT22;41687;-33.234;-60.334;2023-07-09T03:21:28;12.50;99.90
55771;DHT22;41687;-33.234;-60.334;2023-07-09T03:23:56;12.50;99.90
55771;DHT22;41687;-33.234;-60.334;2023-07-09T03:26:24;12.50;99.90
55771;DHT22;41687;-33.234;-60.334;2023-07-09T03:28:55;12.50;99.90
55771;DHT22;41687;-33.234;-60.334;2023-07-09T03:31:23;12.30;99.90
55771;DHT22;41687;-33.234;-60.334;2023-07-09T03:33:52;12.30;99.90
55771;DHT22;41687;-33.234;-60.334;2023-07-09T03:36:20;12.20;99.90
55771;DHT22;41687;-33.234;-60.334;2023-07-09T03:38:48;12.30;99.90
55771;DHT22;41687;-33.234;-60.334;2023-07-09T03:41:16;12.40;99.90
55771;DHT22;41687;-33.234;-60.334;2023-07-09T03:43:43;12.40;99.90
55771;DHT22;41687;-33.234;-60.334;2023-07-09T03:46:11;12.40;99.90
55771;DHT22;41687;-33.234;-60.334;2023-07-09T03:48:39;12.50;99.90
55771;DHT22;41687;-33.234;-60.334;2023-07-09T03:51:06;12.50;99.90
55771;DHT22;41687;-33.234;-60.334;2023-07-09T03:53:34;12.50;99.90
55771;DHT22;41687;-33.234;-60.334;2023-07-09T03:56:01;12.50;99.90
55771;DHT22;41687;-33.234;-60.334;2023-07-09T03:58:29;12.50;99.90
55771;DHT22;41687;-33.234;-60.334;2023-07-09T04:00:56;12.40;99.90
55771;DHT22;41687;-33.234;-60.334;2023-07-09T04:03:24;12.40;99.90
55771;DHT22;41687;-33.234;-60.334;2023-07-09T04:05:52;12.40;99.90
55771;DHT22;41687;-33.234;-60.334;2023-07-09T04:08:19;12.40;99.90
55771;DHT22;41687;-33.234;-60.334;2023-07-09T04:10:47;12.40;99.90
55771;DHT22;41687;-33.234;-60.334;2023-07-09T04:13:15;12.40;99.90
55771;DHT22;41687;-33.234;-60.334;2023-07-09T04:15:43;12.40;99.90
55771;DHT22;41687;-33.234;-60.334;2023-07-09T04:18:11;12.40;99.90
55771;DHT22;41687;-33.234;-60.334;2023-07-09T04:20:38;12.30;99.90
55771;DHT22;41687;-33.234;-60.334;2023-07-09T04:23:07;12.30;99.90
55771;DHT22;41687;-33.234;-60.334;2023-07-09T04:25:35;12.30;99.90
55771;DHT22;41687;-33.234;-60.334;2023-07-09T04:28:03;12.30;99.90
55771;DHT22;41687;-33.234;-60.334;2023-07-09T04:30:30;12.30;99.90
55771;DHT22;41687;-33.234;-60.334;2023-07-09T04:32:58;12.20;99.90
55771;DHT22;41687;-33.234;-60.334;2023-07-09T04:35:25;12.30;99.90
55771;DHT22;41687;-33.234;-60.334;2023-07-09T04:37:53;12.30;99.90
55771;DHT22;41687;-33.234;-60.334;2023-07-09T04:40:20;12.30;99.90
55771;DHT22;41687;-33.234;-60.334;2023-07-09T04:42:48;12.30;99.90
55771;DHT22;41687;-33.234;-60.334;2023-07-09T04:45:15;12.30;99.90
55771;DHT22;41687;-33.234;-60.334;2023-07-09T04:47:43;12.30;99.90
55771;DHT22;41687;-33.234;-60.334;2023-07-09T04:50:11;12.30;99.90
55771;DHT22;41687;-33.234;-60.334;2023-07-09T04:52:41;12.30;99.90
55771;DHT22;41687;-33.234;-60.334;2023-07-09T04:55:08;12.40;99.90
55771;DHT22;41687;-33.234;-60.334;2023-07-09T04:57:37;12.50;99.90
55771;DHT22;41687;-33.234;-60.334;2023-07-09T05:00:05;12.50;99.90
55771;DHT22;41687;-33.234;-60.334;2023-07-09T05:02:33;12.40;99.90
55771;DHT22;41687;-33.234;-60.334;2023-07-09T05:05:01;12.50;99.90
55771;DHT22;41687;-33.234;-60.334;2023-07-09T05:07:29;12.40;99.90
55771;DHT22;41687;-33.234;-60.334;2023-07-09T05:09:56;12.50;99.90
55771;DHT22;41687;-33.234;-60.334;2023-07-09T05:12:27;12.40;99.90
55771;DHT22;41687;-33.234;-60.334;2023-07-09T05:14:55;12.50;99.90
55771;DHT22;41687;-33.234;-60.334;2023-07-09T05:17:23;12.60;99.90
55771;DHT22;41687;-33.234;-60.334;2023-07-09T05:19:51;12.60;99.90
55771;DHT22;41687;-33.234;-60.334;2023-07-09T05:22:19;12.60;99.90
55771;DHT22;41687;-33.234;-60.334;2023-07-09T05:24:47;12.60;99.90
55771;DHT22;41687;-33.234;-60.334;2023-07-09T05:27:14;12.60;99.90
55771;DHT22;41687;-33.234;-60.334;2023-07-09T05:29:42;12.50;99.90
55771;DHT22;41687;-33.234;-60.334;2023-07-09T05:32:09;12.60;99.90
55771;DHT22;41687;-33.234;-60.334;2023-07-09T05:34:37;12.50;99.90
55771;DHT22;41687;-33.234;-60.334;2023-07-09T05:37:04;12.50;99.90
55771;DHT22;41687;-33.234;-60.334;2023-07-09T05:39:32;12.50;99.90
55771;DHT22;41687;-33.234;-60.334;2023-07-09T05:41:59;12.60;99.90
55771;DHT22;41687;-33.234;-60.334;2023-07-09T05:44:27;12.60;99.90
55771;DHT22;41687;-33.234;-60.334;2023-07-09T05:46:54;12.60;99.90
55771;DHT22;41687;-33.234;-60.334;2023-07-09T05:49:22;12.60;99.90
55771;DHT22;41687;-33.234;-60.334;2023-07-09T05:51:51;12.60;99.90
55771;DHT22;41687;-33.234;-60.334;2023-07-09T05:54:18;12.60;99.90
55771;DHT22;41687;-33.234;-60.334;2023-07-09T05:56:46;12.70;99.90
55771;DHT22;41687;-33.234;-60.334;2023-07-09T05:59:14;12.70;99.90
55771;DHT22;41687;-33.234;-60.334;2023-07-09T06:01:41;12.70;99.90
55771;DHT22;41687;-33.234;-60.334;2023-07-09T06:04:09;12.70;99.90
55771;DHT22;41687;-33.234;-60.334;2023-07-09T06:06:38;12.70;99.90
55771;DHT22;41687;-33.234;-60.334;2023-07-09T06:09:06;12.70;99.90
55771;DHT22;41687;-33.234;-60.334;2023-07-09T06:11:35;12.70;99.90
55771;DHT22;41687;-33.234;-60.334;2023-07-09T06:14:03;12.70;99.90
55771;DHT22;41687;-33.234;-60.334;2023-07-09T06:16:30;12.70;99.90
55771;DHT22;41687;-33.234;-60.334;2023-07-09T06:18:58;12.70;99.90
55771;DHT22;41687;-33.234;-60.334;2023-07-09T06:21:25;12.60;99.90
55771;DHT22;41687;-33.234;-60.334;2023-07-09T06:23:53;12.70;99.90
55771;DHT22;41687;-33.234;-60.334;2023-07-09T06:26:20;12.70;99.90
55771;DHT22;41687;-33.234;-60.334;2023-07-09T06:28:48;12.70;99.90
55771;DHT22;41687;-33.234;-60.334;2023-07-09T06:31:16;12.70;99.90
55771;DHT22;41687;-33.234;-60.334;2023-07-09T06:33:43;12.60;99.90
55771;DHT22;41687;-33.234;-60.334;2023-07-09T06:36:11;12.50;99.90
55771;DHT22;41687;-33.234;-60.334;2023-07-09T06:38:39;12.40;99.90
55771;DHT22;41687;-33.234;-60.334;2023-07-09T06:41:06;12.40;99.90
55771;DHT22;41687;-33.234;-60.334;2023-07-09T06:43:34;12.40;99.90
55771;DHT22;41687;-33.234;-60.334;2023-07-09T06:46:07;12.40;99.90
55771;DHT22;41687;-33.234;-60.334;2023-07-09T06:48:35;12.40;99.90
55771;DHT22;41687;-33.234;-60.334;2023-07-09T06:51:03;12.40;99.90
55771;DHT22;41687;-33.234;-60.334;2023-07-09T06:53:31;12.40;99.90
55771;DHT22;41687;-33.234;-60.334;2023-07-09T06:55:59;12.50;99.90
55771;DHT22;41687;-33.234;-60.334;2023-07-09T06:58:27;12.50;99.90
55771;DHT22;41687;-33.234;-60.334;2023-07-09T07:00:55;12.60;99.90
55771;DHT22;41687;-33.234;-60.334;2023-07-09T07:03:23;12.60;99.90
55771;DHT22;41687;-33.234;-60.334;2023-07-09T07:05:52;12.60;99.90
55771;DHT22;41687;-33.234;-60.334;2023-07-09T07:08:21;12.60;99.90
55771;DHT22;41687;-33.234;-60.334;2023-07-09T07:11:00;12.60;99.90
55771;DHT22;41687;-33.234;-60.334;2023-07-09T07:13:37;12.60;99.90
55771;DHT22;41687;-33.234;-60.334;2023-07-09T07:16:08;12.60;99.90
55771;DHT22;41687;-33.234;-60.334;2023-07-09T07:18:36;12.60;99.90
55771;DHT22;41687;-33.234;-60.334;2023-07-09T07:21:04;12.60;99.90
55771;DHT22;41687;-33.234;-60.334;2023-07-09T07:23:32;12.50;99.90
55771;DHT22;41687;-33.234;-60.334;2023-07-09T07:25:59;12.50;99.90
55771;DHT22;41687;-33.234;-60.334;2023-07-09T07:28:27;12.60;99.90
55771;DHT22;41687;-33.234;-60.334;2023-07-09T07:31:20;12.60;99.90
55771;DHT22;41687;-33.234;-60.334;2023-07-09T07:33:48;12.60;99.90
55771;DHT22;41687;-33.234;-60.334;2023-07-09T07:36:15;12.70;99.90
55771;DHT22;41687;-33.234;-60.334;2023-07-09T07:38:43;12.70;99.90
55771;DHT22;41687;-33.234;-60.334;2023-07-09T07:41:10;12.70;99.90
55771;DHT22;41687;-33.234;-60.334;2023-07-09T07:43:38;12.70;99.90
55771;DHT22;41687;-33.234;-60.334;2023-07-09T07:46:07;12.70;99.90
55771;DHT22;41687;-33.234;-60.334;2023-07-09T07:48:35;12.70;99.90
55771;DHT22;41687;-33.234;-60.334;2023-07-09T07:51:03;12.70;99.90
55771;DHT22;41687;-33.234;-60.334;2023-07-09T07:53:32;12.80;99.90
55771;DHT22;41687;-33.234;-60.334;2023-07-09T07:56:00;12.80;99.90
55771;DHT22;41687;-33.234;-60.334;2023-07-09T07:58:30;12.80;99.90
55771;DHT22;41687;-33.234;-60.334;2023-07-09T08:00:58;12.80;99.90
55771;DHT22;41687;-33.234;-60.334;2023-07-09T08:03:26;12.80;99.90
55771;DHT22;41687;-33.234;-60.334;2023-07-09T08:05:53;12.80;99.90
55771;DHT22;41687;-33.234;-60.334;2023-07-09T08:08:21;12.80;99.90
55771;DHT22;41687;-33.234;-60.334;2023-07-09T08:10:50;12.80;99.90
55771;DHT22;41687;-33.234;-60.334;2023-07-09T08:13:18;12.80;99.90
55771;DHT22;41687;-33.234;-60.334;2023-07-09T08:15:46;12.80;99.90
55771;DHT22;41687;-33.234;-60.334;2023-07-09T08:18:14;12.80;99.90
55771;DHT22;41687;-33.234;-60.334;2023-07-09T08:20:44;12.80;99.90
55771;DHT22;41687;-33.234;-60.334;2023-07-09T08:23:12;12.80;99.90
55771;DHT22;41687;-33.234;-60.334;2023-07-09T08:25:39;12.80;99.90
55771;DHT22;41687;-33.234;-60.334;2023-07-09T08:28:06;12.80;99.90
55771;DHT22;41687;-33.234;-60.334;2023-07-09T08:30:34;12.70;99.90
55771;DHT22;41687;-33.234;-60.334;2023-07-09T08:33:03;12.70;99.90
55771;DHT22;41687;-33.234;-60.334;2023-07-09T08:35:30;12.70;99.90
55771;DHT22;41687;-33.234;-60.334;2023-07-09T08:37:59;12.70;99.90
55771;DHT22;41687;-33.234;-60.334;2023-07-09T08:40:26;12.60;99.90
55771;DHT22;41687;-33.234;-60.334;2023-07-09T08:43:02;12.60;99.90
55771;DHT22;41687;-33.234;-60.334;2023-07-09T08:45:56;12.60;99.90
55771;DHT22;41687;-33.234;-60.334;2023-07-09T08:48:34;12.60;99.90
55771;DHT22;41687;-33.234;-60.334;2023-07-09T08:53:56;12.60;99.90
55771;DHT22;41687;-33.234;-60.334;2023-07-09T08:56:26;12.50;99.90
55771;DHT22;41687;-33.234;-60.334;2023-07-09T08:58:58;12.50;99.90
55771;DHT22;41687;-33.234;-60.334;2023-07-09T09:01:35;12.60;99.90
55771;DHT22;41687;-33.234;-60.334;2023-07-09T09:04:25;12.50;99.90
55771;DHT22;41687;-33.234;-60.334;2023-07-09T09:07:15;12.50;99.90
55771;DHT22;41687;-33.234;-60.334;2023-07-09T09:09:54;12.50;99.90
55771;DHT22;41687;-33.234;-60.334;2023-07-09T09:15:12;12.40;99.90
55771;DHT22;41687;-33.234;-60.334;2023-07-09T09:17:41;12.40;99.90
55771;DHT22;41687;-33.234;-60.334;2023-07-09T09:20:12;12.40;99.90
55771;DHT22;41687;-33.234;-60.334;2023-07-09T09:25:39;12.50;99.90
55771;DHT22;41687;-33.234;-60.334;2023-07-09T09:28:09;12.50;99.90
55771;DHT22;41687;-33.234;-60.334;2023-07-09T09:30:36;12.40;99.90
55771;DHT22;41687;-33.234;-60.334;2023-07-09T09:33:12;12.40;99.90
55771;DHT22;41687;-33.234;-60.334;2023-07-09T09:35:42;12.40;99.90
55771;DHT22;41687;-33.234;-60.334;2023-07-09T09:38:22;12.40;99.90
55771;DHT22;41687;-33.234;-60.334;2023-07-09T09:40:49;12.40;99.90
55771;DHT22;41687;-33.234;-60.334;2023-07-09T09:43:19;12.50;99.90
55771;DHT22;41687;-33.234;-60.334;2023-07-09T09:45:49;12.50;99.90
55771;DHT22;41687;-33.234;-60.334;2023-07-09T09:48:19;12.40;99.90
55771;DHT22;41687;-33.234;-60.334;2023-07-09T09:50:48;12.50;99.90
55771;DHT22;41687;-33.234;-60.334;2023-07-09T09:53:21;12.50;99.90
55771;DHT22;41687;-33.234;-60.334;2023-07-09T09:55:52;12.50;99.90
55771;DHT22;41687;-33.234;-60.334;2023-07-09T09:58:24;12.50;99.90
55771;DHT22;41687;-33.234;-60.334;2023-07-09T10:00:54;12.50;99.90
55771;DHT22;41687;-33.234;-60.334;2023-07-09T10:03:33;12.60;99.90
55771;DHT22;41687;-33.234;-60.334;2023-07-09T10:06:10;12.50;99.90
55771;DHT22;41687;-33.234;-60.334;2023-07-09T10:22:41;12.50;99.90
55771;DHT22;41687;-33.234;-60.334;2023-07-09T10:25:48;12.50;99.90
55771;DHT22;41687;-33.234;-60.334;2023-07-09T10:39:57;12.50;99.90
55771;DHT22;41687;-33.234;-60.334;2023-07-09T10:42:42;12.40;99.90
55771;DHT22;41687;-33.234;-60.334;2023-07-09T10:45:21;12.50;99.90
55771;DHT22;41687;-33.234;-60.334;2023-07-09T10:48:32;12.40;99.90
55771;DHT22;41687;-33.234;-60.334;2023-07-09T10:51:01;12.50;99.90
55771;DHT22;41687;-33.234;-60.334;2023-07-09T10:53:34;12.40;99.90
55771;DHT22;41687;-33.234;-60.334;2023-07-09T11:01:06;12.40;99.90
55771;DHT22;41687;-33.234;-60.334;2023-07-09T11:03:35;12.40;99.90
55771;DHT22;41687;-33.234;-60.334;2023-07-09T11:09:30;12.40;99.90
55771;DHT22;41687;-33.234;-60.334;2023-07-09T11:12:05;12.40;99.90
55771;DHT22;41687;-33.234;-60.334;2023-07-09T11:14:47;12.40;99.90
55771;DHT22;41687;-33.234;-60.334;2023-07-09T11:17:20;12.40;99.90
55771;DHT22;41687;-33.234;-60.334;2023-07-09T11:19:55;12.40;99.90
55771;DHT22;41687;-33.234;-60.334;2023-07-09T11:22:35;12.50;99.90
55771;DHT22;41687;-33.234;-60.334;2023-07-09T11:25:13;12.50;99.90
55771;DHT22;41687;-33.234;-60.334;2023-07-09T11:27:51;12.50;99.90
55771;DHT22;41687;-33.234;-60.334;2023-07-09T11:30:25;12.50;99.90
55771;DHT22;41687;-33.234;-60.334;2023-07-09T11:32:58;12.50;99.90
55771;DHT22;41687;-33.234;-60.334;2023-07-09T11:35:29;12.50;99.90
55771;DHT22;41687;-33.234;-60.334;2023-07-09T11:38:08;12.50;99.90
55771;DHT22;41687;-33.234;-60.334;2023-07-09T11:40:47;12.50;99.90
55771;DHT22;41687;-33.234;-60.334;2023-07-09T11:43:33;12.50;99.90
55771;DHT22;41687;-33.234;-60.334;2023-07-09T11:46:11;12.50;99.90
55771;DHT22;41687;-33.234;-60.334;2023-07-09T11:48:41;12.60;99.90
55771;DHT22;41687;-33.234;-60.334;2023-07-09T11:51:18;12.60;99.90
55771;DHT22;41687;-33.234;-60.334;2023-07-09T11:53:51;12.60;99.90
55771;DHT22;41687;-33.234;-60.334;2023-07-09T11:56:21;12.60;99.90
55771;DHT22;41687;-33.234;-60.334;2023-07-09T11:58:50;12.60;99.90
55771;DHT22;41687;-33.234;-60.334;2023-07-09T12:01:30;12.60;99.90
55771;DHT22;41687;-33.234;-60.334;2023-07-09T12:03:58;12.60;99.90
55771;DHT22;41687;-33.234;-60.334;2023-07-09T12:06:31;12.70;99.90
55771;DHT22;41687;-33.234;-60.334;2023-07-09T12:09:00;12.60;99.90
55771;DHT22;41687;-33.234;-60.334;2023-07-09T12:11:33;12.60;99.90
55771;DHT22;41687;-33.234;-60.334;2023-07-09T12:14:15;12.70;99.90
55771;DHT22;41687;-33.234;-60.334;2023-07-09T12:16:48;12.70;99.90
55771;DHT22;41687;-33.234;-60.334;2023-07-09T12:19:22;12.70;99.90
55771;DHT22;41687;-33.234;-60.334;2023-07-09T12:21:55;12.70;99.90
55771;DHT22;41687;-33.234;-60.334;2023-07-09T12:24:37;12.80;99.90
55771;DHT22;41687;-33.234;-60.334;2023-07-09T12:27:19;12.80;99.90
55771;DHT22;41687;-33.234;-60.334;2023-07-09T12:29:54;12.90;99.90
55771;DHT22;41687;-33.234;-60.334;2023-07-09T12:32:22;12.80;99.90
55771;DHT22;41687;-33.234;-60.334;2023-07-09T12:34:55;12.80;99.90
55771;DHT22;41687;-33.234;-60.334;2023-07-09T12:37:25;12.90;99.90
55771;DHT22;41687;-33.234;-60.334;2023-07-09T12:39:54;12.90;99.90
55771;DHT22;41687;-33.234;-60.334;2023-07-09T12:42:31;13.00;99.90
55771;DHT22;41687;-33.234;-60.334;2023-07-09T12:45:00;13.00;99.90
55771;DHT22;41687;-33.234;-60.334;2023-07-09T12:47:28;13.00;99.90
55771;DHT22;41687;-33.234;-60.334;2023-07-09T12:50:25;13.10;99.90
55771;DHT22;41687;-33.234;-60.334;2023-07-09T12:52:56;13.10;99.90
55771;DHT22;41687;-33.234;-60.334;2023-07-09T12:55:26;13.20;99.90
55771;DHT22;41687;-33.234;-60.334;2023-07-09T12:57:58;13.20;99.90
55771;DHT22;41687;-33.234;-60.334;2023-07-09T13:00:30;13.30;99.90
55771;DHT22;41687;-33.234;-60.334;2023-07-09T13:02:59;13.30;99.90
55771;DHT22;41687;-33.234;-60.334;2023-07-09T13:05:27;13.40;99.90
55771;DHT22;41687;-33.234;-60.334;2023-07-09T13:08:00;13.50;99.90
55771;DHT22;41687;-33.234;-60.334;2023-07-09T13:10:30;13.50;99.90
55771;DHT22;41687;-33.234;-60.334;2023-07-09T13:13:03;13.60;99.90
55771;DHT22;41687;-33.234;-60.334;2023-07-09T13:15:38;13.60;99.90
55771;DHT22;41687;-33.234;-60.334;2023-07-09T13:18:09;13.60;99.90
55771;DHT22;41687;-33.234;-60.334;2023-07-09T13:20:44;13.60;99.90
55771;DHT22;41687;-33.234;-60.334;2023-07-09T13:23:25;13.70;99.90
55771;DHT22;41687;-33.234;-60.334;2023-07-09T13:25:53;13.70;99.90
55771;DHT22;41687;-33.234;-60.334;2023-07-09T13:28:28;13.80;99.90
55771;DHT22;41687;-33.234;-60.334;2023-07-09T13:31:15;13.90;99.90
55771;DHT22;41687;-33.234;-60.334;2023-07-09T13:33:44;14.10;99.90
55771;DHT22;41687;-33.234;-60.334;2023-07-09T13:36:17;14.30;99.90
55771;DHT22;41687;-33.234;-60.334;2023-07-09T13:38:44;14.30;99.90
55771;DHT22;41687;-33.234;-60.334;2023-07-09T13:41:15;14.50;99.90
55771;DHT22;41687;-33.234;-60.334;2023-07-09T13:43:45;14.60;99.90
55771;DHT22;41687;-33.234;-60.334;2023-07-09T13:46:14;14.60;99.90
55771;DHT22;41687;-33.234;-60.334;2023-07-09T13:48:43;14.70;99.90
55771;DHT22;41687;-33.234;-60.334;2023-07-09T13:51:21;14.60;99.90
55771;DHT22;41687;-33.234;-60.334;2023-07-09T13:53:54;14.90;99.90
55771;DHT22;41687;-33.234;-60.334;2023-07-09T13:56:22;14.90;99.90
55771;DHT22;41687;-33.234;-60.334;2023-07-09T13:58:50;15.00;99.90
55771;DHT22;41687;-33.234;-60.334;2023-07-09T14:01:21;15.00;99.90
55771;DHT22;41687;-33.234;-60.334;2023-07-09T14:03:49;15.10;99.90
55771;DHT22;41687;-33.234;-60.334;2023-07-09T14:06:17;15.40;99.90
55771;DHT22;41687;-33.234;-60.334;2023-07-09T14:08:45;15.70;99.90
55771;DHT22;41687;-33.234;-60.334;2023-07-09T14:11:16;15.70;99.90
55771;DHT22;41687;-33.234;-60.334;2023-07-09T14:13:44;15.70;99.90
55771;DHT22;41687;-33.234;-60.334;2023-07-09T14:16:12;15.80;99.90
55771;DHT22;41687;-33.234;-60.334;2023-07-09T14:18:42;16.00;99.90
55771;DHT22;41687;-33.234;-60.334;2023-07-09T14:21:23;16.10;99.90
55771;DHT22;41687;-33.234;-60.334;2023-07-09T14:23:53;16.00;99.90
55771;DHT22;41687;-33.234;-60.334;2023-07-09T14:26:20;16.00;99.90
55771;DHT22;41687;-33.234;-60.334;2023-07-09T14:28:47;15.80;99.90
55771;DHT22;41687;-33.234;-60.334;2023-07-09T14:31:22;15.70;99.90
55771;DHT22;41687;-33.234;-60.334;2023-07-09T14:33:51;15.70;99.90
55771;DHT22;41687;-33.234;-60.334;2023-07-09T14:36:18;15.70;99.90
55771;DHT22;41687;-33.234;-60.334;2023-07-09T14:38:46;15.60;99.90
55771;DHT22;41687;-33.234;-60.334;2023-07-09T14:41:22;15.50;99.90
55771;DHT22;41687;-33.234;-60.334;2023-07-09T14:43:54;15.50;99.90
55771;DHT22;41687;-33.234;-60.334;2023-07-09T14:46:23;15.40;99.90
55771;DHT22;41687;-33.234;-60.334;2023-07-09T14:48:50;15.50;99.90
55771;DHT22;41687;-33.234;-60.334;2023-07-09T14:51:18;15.40;99.90
55771;DHT22;41687;-33.234;-60.334;2023-07-09T14:53:46;15.40;99.90
55771;DHT22;41687;-33.234;-60.334;2023-07-09T14:56:15;15.40;99.90
55771;DHT22;41687;-33.234;-60.334;2023-07-09T14:58:42;15.40;99.90
55771;DHT22;41687;-33.234;-60.334;2023-07-09T15:01:18;15.30;99.90
55771;DHT22;41687;-33.234;-60.334;2023-07-09T15:03:48;15.30;99.90
55771;DHT22;41687;-33.234;-60.334;2023-07-09T15:06:15;15.30;99.90
55771;DHT22;41687;-33.234;-60.334;2023-07-09T15:08:43;15.30;99.90
55771;DHT22;41687;-33.234;-60.334;2023-07-09T15:11:10;15.30;99.90
55771;DHT22;41687;-33.234;-60.334;2023-07-09T15:13:38;15.30;99.90
55771;DHT22;41687;-33.234;-60.334;2023-07-09T15:16:06;15.30;99.90
55771;DHT22;41687;-33.234;-60.334;2023-07-09T15:18:33;15.30;99.90
55771;DHT22;41687;-33.234;-60.334;2023-07-09T15:21:04;15.30;99.90
55771;DHT22;41687;-33.234;-60.334;2023-07-09T15:23:39;15.40;99.90
55771;DHT22;41687;-33.234;-60.334;2023-07-09T15:26:17;15.30;99.90
55771;DHT22;41687;-33.234;-60.334;2023-07-09T15:28:45;15.40;99.90
55771;DHT22;41687;-33.234;-60.334;2023-07-09T15:31:16;15.50;99.90
55771;DHT22;41687;-33.234;-60.334;2023-07-09T15:33:43;15.50;99.90
55771;DHT22;41687;-33.234;-60.334;2023-07-09T15:36:12;15.50;99.90
55771;DHT22;41687;-33.234;-60.334;2023-07-09T15:38:40;15.40;99.90
55771;DHT22;41687;-33.234;-60.334;2023-07-09T15:41:13;15.50;99.90
55771;DHT22;41687;-33.234;-60.334;2023-07-09T15:43:44;15.60;99.90
55771;DHT22;41687;-33.234;-60.334;2023-07-09T15:46:21;15.70;99.90
55771;DHT22;41687;-33.234;-60.334;2023-07-09T15:48:52;15.70;99.90
55771;DHT22;41687;-33.234;-60.334;2023-07-09T15:51:20;15.80;99.90
55771;DHT22;41687;-33.234;-60.334;2023-07-09T15:53:50;15.80;99.90
55771;DHT22;41687;-33.234;-60.334;2023-07-09T15:56:29;15.90;99.90